createdAt,value
2023-02-18T00:01:39.733Z,0.90
2023-02-18T00:04:07.460Z,0.68
2023-02-18T00:06:36.487Z,0.90
2023-02-18T00:09:06.453Z,0.80
2023-02-18T00:11:35.831Z,0.50
2023-02-18T00:14:05.541Z,0.77
2023-02-18T00:16:33.556Z,1.08
2023-02-18T00:19:05.552Z,0.82
2023-02-18T00:21:34.631Z,0.90
2023-02-18T00:24:02.366Z,0.85
2023-02-18T00:26:30.366Z,1.00
2023-02-18T00:28:58.170Z,0.60
2023-02-18T00:31:30.408Z,1.35
2023-02-18T00:34:00.471Z,0.65
2023-02-18T00:36:29.372Z,0.80
2023-02-18T00:39:00.987Z,0.90
2023-02-18T00:41:29.979Z,0.95
2023-02-18T00:43:58.189Z,0.43
2023-02-18T00:46:27.638Z,0.73
2023-02-18T00:48:55.634Z,0.75
2023-02-18T00:51:26.022Z,0.40
2023-02-18T00:53:54.267Z,0.70
2023-02-18T00:56:22.114Z,0.40
2023-02-18T00:58:50.398Z,0.88
2023-02-18T01:01:18.379Z,0.52
2023-02-18T01:03:46.750Z,0.50
2023-02-18T01:06:15.321Z,0.70
2023-02-18T01:08:43.205Z,0.50
2023-02-18T01:11:13.025Z,0.38
2023-02-18T01:13:41.408Z,1.00
2023-02-18T01:16:10.070Z,0.40
2023-02-18T01:18:39.179Z,0.70
2023-02-18T01:21:08.807Z,0.40
2023-02-18T01:23:38.733Z,0.45
2023-02-18T01:26:07.221Z,0.50
2023-02-18T01:28:35.464Z,0.30
2023-02-18T01:31:09.197Z,0.50
2023-02-18T01:33:37.542Z,0.40
2023-02-18T01:36:06.306Z,0.40
2023-02-18T01:38:34.838Z,0.30
2023-02-18T01:41:03.171Z,0.65
2023-02-18T01:43:31.159Z,0.55
2023-02-18T01:46:17.414Z,0.40
2023-02-18T01:48:56.668Z,0.30
2023-02-18T01:51:30.106Z,0.73
2023-02-18T01:53:57.838Z,0.47
2023-02-18T01:56:38.367Z,0.40
2023-02-18T01:59:14.255Z,0.63
2023-02-18T02:01:44.889Z,0.55
2023-02-18T02:04:13.260Z,0.38
2023-02-18T02:06:44.889Z,0.30
2023-02-18T02:09:16.217Z,0.43
2023-02-18T02:11:46.786Z,0.60
2023-02-18T02:14:30.350Z,0.57
2023-02-18T02:17:03.611Z,0.50
2023-02-18T02:19:55.647Z,0.40
2023-02-18T02:22:40.116Z,0.45
2023-02-18T02:25:22.963Z,0.40
2023-02-18T02:28:01.741Z,0.60
2023-02-18T02:31:17.878Z,0.63
2023-02-18T02:33:54.535Z,0.25
2023-02-18T02:36:41.651Z,0.40
2023-02-18T02:39:21.325Z,0.10
2023-02-18T02:42:03.944Z,0.30
2023-02-18T02:44:51.761Z,0.40
2023-02-18T02:47:53.557Z,0.25
2023-02-18T02:50:47.334Z,0.20
2023-02-18T02:53:22.605Z,0.30
2023-02-18T02:55:50.297Z,0.20
2023-02-18T02:58:20.942Z,0.20
2023-02-18T03:01:12.066Z,0.50
2023-02-18T03:04:19.235Z,0.40
2023-02-18T03:07:21.810Z,0.50
2023-02-18T03:10:10.546Z,0.30
2023-02-18T03:13:16.764Z,0.20
2023-02-18T03:15:57.725Z,0.38
2023-02-18T03:18:46.991Z,0.30
2023-02-18T03:21:29.740Z,0.45
2023-02-18T03:24:13.645Z,0.45
2023-02-18T03:26:51.653Z,0.40
2023-02-18T03:29:21.297Z,0.40
2023-02-18T03:31:55.762Z,0.30
2023-02-18T03:34:30.117Z,0.45
2023-02-18T03:37:00.360Z,0.22
2023-02-18T03:39:30.796Z,0.20
2023-02-18T03:41:58.787Z,0.35
2023-02-18T03:44:26.803Z,0.60
2023-02-18T03:46:54.616Z,0.40
2023-02-18T03:49:22.337Z,0.50
2023-02-18T03:51:50.526Z,0.38
2023-02-18T03:54:18.152Z,0.20
2023-02-18T03:56:46.109Z,0.30
2023-02-18T03:59:13.812Z,0.50
2023-02-18T04:01:41.617Z,0.50
2023-02-18T04:04:09.363Z,0.40
2023-02-18T04:06:37.140Z,0.25
2023-02-18T04:09:09.068Z,0.20
2023-02-18T04:11:38.545Z,0.32
2023-02-18T04:14:06.749Z,0.70
2023-02-18T04:16:34.430Z,0.40
2023-02-18T04:19:02.206Z,0.47
2023-02-18T04:21:29.780Z,0.30
2023-02-18T04:23:57.491Z,0.47
2023-02-18T04:26:25.270Z,0.38
2023-02-18T04:28:52.938Z,0.63
2023-02-18T04:31:20.707Z,0.55
2023-02-18T04:33:48.408Z,0.38
2023-02-18T04:36:16.057Z,0.40
2023-02-18T04:38:43.936Z,0.60
2023-02-18T04:41:12.811Z,0.50
2023-02-18T04:43:40.371Z,0.60
2023-02-18T04:46:08.486Z,0.47
2023-02-18T04:48:37.224Z,0.43
2023-02-18T04:51:05.233Z,0.73
2023-02-18T04:53:33.246Z,0.50
2023-02-18T04:56:01.245Z,0.52
2023-02-18T04:58:29.163Z,0.60
2023-02-18T05:01:01.820Z,0.52
2023-02-18T05:03:30.649Z,0.82
2023-02-18T05:05:59.194Z,0.70
2023-02-18T05:08:27.067Z,0.70
2023-02-18T05:10:54.697Z,0.70
2023-02-18T05:13:22.949Z,0.65
2023-02-18T05:15:51.059Z,0.63
2023-02-18T05:18:18.771Z,0.90
2023-02-18T05:20:46.557Z,0.50
2023-02-18T05:23:14.861Z,1.00
2023-02-18T05:25:42.574Z,0.50
2023-02-18T05:28:10.194Z,0.82
2023-02-18T05:30:37.948Z,0.60
2023-02-18T05:33:05.633Z,0.65
2023-02-18T05:35:33.201Z,0.80
2023-02-18T05:38:02.537Z,0.55
2023-02-18T05:40:30.341Z,0.63
2023-02-18T05:42:58.038Z,0.60
2023-02-18T05:45:25.726Z,0.95
2023-02-18T05:47:53.369Z,1.10
2023-02-18T05:50:21.502Z,0.70
2023-02-18T05:52:49.387Z,1.17
2023-02-18T05:55:17.166Z,0.88
2023-02-18T05:57:44.759Z,1.10
2023-02-18T06:00:13.300Z,0.70
2023-02-18T06:02:43.175Z,0.93
2023-02-18T06:05:11.481Z,0.82
2023-02-18T06:07:39.102Z,0.90
2023-02-18T06:10:07.453Z,1.20
2023-02-18T06:12:35.092Z,1.33
2023-02-18T06:15:02.673Z,1.33
2023-02-18T06:17:30.409Z,1.20
2023-02-18T06:19:58.164Z,1.35
2023-02-18T06:22:25.809Z,1.50
2023-02-18T06:24:53.425Z,1.48
2023-02-18T06:27:21.418Z,1.85
2023-02-18T06:29:49.063Z,1.38
2023-02-18T06:32:17.891Z,1.42
2023-02-18T06:34:45.642Z,1.50
2023-02-18T06:37:13.369Z,1.90
2023-02-18T06:39:40.982Z,2.63
2023-02-18T06:42:08.716Z,2.83
2023-02-18T06:44:37.906Z,2.45
2023-02-18T06:47:05.970Z,2.33
2023-02-18T06:49:34.044Z,1.88
2023-02-18T06:52:02.331Z,2.10
2023-02-18T06:54:30.002Z,2.60
2023-02-18T06:56:57.841Z,2.20
2023-02-18T06:59:25.772Z,1.85
2023-02-18T07:01:53.459Z,2.72
2023-02-18T07:04:21.035Z,2.28
2023-02-18T07:06:48.783Z,2.60
2023-02-18T07:09:16.593Z,2.22
2023-02-18T07:11:44.234Z,2.92
2023-02-18T07:14:14.982Z,2.42
2023-02-18T07:16:42.730Z,2.53
2023-02-18T07:19:10.506Z,2.55
2023-02-18T07:21:38.107Z,2.60
2023-02-18T07:24:06.428Z,2.72
2023-02-18T07:26:34.116Z,3.33
2023-02-18T07:29:02.549Z,3.03
2023-02-18T07:31:30.309Z,2.35
2023-02-18T07:33:59.961Z,2.35
2023-02-18T07:36:27.545Z,3.38
2023-02-18T07:38:55.186Z,2.70
2023-02-18T07:41:23.868Z,2.83
2023-02-18T07:43:51.715Z,3.03
2023-02-18T07:46:20.136Z,2.70
2023-02-18T07:48:47.773Z,3.00
2023-02-18T07:51:15.441Z,3.13
2023-02-18T07:53:43.198Z,2.65
2023-02-18T07:56:11.140Z,2.55
2023-02-18T07:58:39.868Z,3.35
2023-02-18T08:01:14.962Z,1.98
2023-02-18T08:03:42.992Z,2.60
2023-02-18T08:06:22.520Z,2.22
2023-02-18T08:08:50.197Z,1.98
2023-02-18T08:11:19.645Z,1.70
2023-02-18T08:13:49.174Z,1.65
2023-02-18T08:16:23.832Z,1.17
2023-02-18T08:18:53.205Z,2.17
2023-02-18T08:21:22.466Z,1.20
2023-02-18T08:23:52.629Z,2.05
2023-02-18T08:26:23.740Z,1.40
2023-02-18T08:28:51.543Z,1.63
2023-02-18T08:31:25.666Z,1.52
2023-02-18T08:33:55.715Z,1.30
2023-02-18T08:36:23.918Z,1.50
2023-02-18T08:38:51.557Z,0.90
2023-02-18T08:41:28.422Z,1.05
2023-02-18T08:43:56.636Z,0.98
2023-02-18T08:46:33.476Z,1.55
2023-02-18T08:49:04.384Z,1.35
2023-02-18T08:51:32.189Z,1.10
2023-02-18T08:53:59.929Z,0.95
2023-02-18T08:56:27.594Z,1.45
2023-02-18T08:58:55.304Z,1.10
2023-02-18T09:01:23.018Z,1.00
2023-02-18T09:03:51.018Z,1.30
2023-02-18T09:06:18.723Z,1.60
2023-02-18T09:08:46.388Z,1.90
2023-02-18T09:11:14.261Z,1.77
2023-02-18T09:13:41.943Z,2.03
2023-02-18T09:16:13.315Z,1.45
2023-02-18T09:18:41.408Z,2.35
2023-02-18T09:21:11.561Z,2.20
2023-02-18T09:23:43.034Z,2.33
2023-02-18T09:26:14.452Z,2.00
2023-02-18T09:28:42.377Z,1.00
2023-02-18T09:31:16.408Z,0.98
2023-02-18T09:33:47.274Z,1.50
2023-02-18T09:36:15.518Z,0.90
2023-02-18T09:38:44.033Z,1.10
2023-02-18T09:41:37.038Z,1.40
2023-02-18T09:44:31.312Z,0.70
2023-02-18T09:47:17.019Z,1.00
2023-02-18T09:49:49.697Z,1.77
2023-02-18T09:52:33.942Z,1.13
2023-02-18T09:55:14.592Z,1.00
2023-02-18T09:57:46.453Z,0.75
2023-02-18T10:00:27.253Z,1.17
2023-02-18T10:02:59.022Z,0.85
2023-02-18T10:05:29.127Z,0.82
2023-02-18T10:08:02.273Z,1.00
2023-02-18T10:10:43.088Z,2.20
2023-02-18T10:13:20.097Z,1.17
2023-02-18T10:15:51.730Z,2.40
2023-02-18T10:18:41.209Z,1.73
2023-02-18T10:21:50.441Z,3.15
2023-02-18T10:24:32.341Z,2.03
2023-02-18T10:27:00.988Z,3.72
2023-02-18T10:29:32.290Z,2.97
2023-02-18T10:32:05.376Z,4.55
2023-02-18T10:34:52.076Z,3.17
2023-02-18T10:37:31.759Z,4.10
2023-02-18T10:40:08.376Z,5.63
2023-02-18T10:42:57.633Z,3.33
2023-02-18T10:45:43.686Z,4.00
2023-02-18T10:48:30.085Z,2.75
2023-02-18T10:51:01.969Z,2.53
2023-02-18T10:53:36.653Z,1.70
2023-02-18T10:56:06.654Z,0.87
2023-02-18T10:59:07.330Z,0.20
2023-02-18T11:01:35.117Z,0.85
2023-02-18T11:04:22.067Z,0.03
2023-02-18T11:06:56.226Z,0.52
2023-02-18T11:09:40.599Z,0.95
2023-02-18T11:12:20.891Z,1.17
2023-02-18T11:15:02.852Z,0.20
2023-02-18T11:17:33.504Z,0.00
2023-02-18T11:20:24.813Z,0.25
2023-02-18T11:23:12.815Z,0.08
2023-02-18T11:25:42.496Z,0.10
2023-02-18T11:28:13.270Z,0.32
2023-02-18T11:31:03.664Z,0.20
2023-02-18T11:33:49.529Z,0.20
2023-02-18T11:36:17.134Z,0.10
2023-02-18T11:39:00.901Z,0.10
2023-02-18T11:41:39.061Z,0.10
2023-02-18T11:44:19.257Z,0.40
2023-02-18T11:46:59.107Z,0.43
2023-02-18T11:49:35.795Z,0.50
2023-02-18T11:55:32.772Z,0.40
2023-02-18T11:58:09.839Z,0.52
2023-02-18T12:00:46.290Z,0.17
2023-02-18T12:03:48.647Z,0.17
2023-02-18T12:06:22.417Z,0.10
2023-02-18T12:08:58.896Z,0.10
2023-02-18T12:11:38.746Z,0.30
2023-02-18T12:14:14.496Z,0.20
2023-02-18T12:16:48.174Z,0.15
2023-02-18T12:19:37.352Z,0.25
2023-02-18T12:22:10.724Z,0.90
2023-02-18T12:24:41.059Z,1.17
2023-02-18T12:27:24.475Z,0.28
2023-02-18T12:29:58.537Z,0.00
2023-02-18T12:32:50.778Z,0.10
2023-02-18T12:35:41.225Z,0.38
2023-02-18T12:38:20.805Z,0.00
2023-02-18T12:40:54.311Z,0.30
2023-02-18T12:43:30.833Z,0.30
2023-02-18T12:46:21.424Z,0.25
2023-02-18T12:48:52.213Z,0.20
2023-02-18T12:51:33.098Z,0.25
2023-02-18T12:54:13.656Z,0.00
2023-02-18T12:57:10.513Z,0.30
2023-02-18T13:00:02.839Z,0.82
2023-02-18T13:02:40.059Z,0.10
2023-02-18T13:05:37.504Z,0.25
2023-02-18T13:08:47.067Z,0.88
2023-02-18T13:11:23.582Z,1.30
2023-02-18T13:14:00.123Z,0.50
2023-02-18T13:16:29.522Z,0.40
2023-02-18T13:19:35.194Z,0.25
2023-02-18T13:22:06.588Z,0.32
2023-02-18T13:24:39.811Z,0.00
2023-02-18T13:27:33.307Z,0.40
2023-02-18T13:30:39.519Z,0.10
2023-02-18T13:33:28.822Z,0.20
2023-02-18T13:36:22.042Z,0.30
2023-02-18T13:39:07.034Z,0.40
2023-02-18T13:41:43.013Z,0.22
2023-02-18T13:44:30.940Z,0.45
2023-02-18T13:46:59.652Z,0.70
2023-02-18T13:49:38.013Z,0.63
2023-02-18T13:52:06.278Z,1.35
2023-02-18T13:54:45.736Z,0.40
2023-02-18T13:57:22.332Z,0.52
2023-02-18T13:59:57.456Z,0.70
2023-02-18T14:02:25.420Z,0.77
2023-02-18T14:04:57.677Z,1.05
2023-02-18T14:07:41.697Z,0.80
2023-02-18T14:10:21.030Z,1.48
2023-02-18T14:12:57.956Z,1.30
2023-02-18T14:15:25.800Z,8.40
2023-02-18T14:18:15.399Z,8.68
2023-02-18T14:20:45.063Z,14.65
2023-02-18T14:23:12.697Z,5.45
2023-02-18T14:25:47.933Z,1.90
2023-02-18T14:28:34.030Z,1.85
2023-02-18T14:31:14.568Z,2.70
2023-02-18T14:34:16.633Z,3.35
2023-02-18T14:37:08.721Z,3.15
2023-02-18T14:40:00.659Z,2.70
2023-02-18T14:42:46.924Z,1.80
2023-02-18T14:45:54.643Z,1.67
2023-02-18T14:48:43.593Z,0.70
2023-02-18T14:51:16.930Z,2.15
2023-02-18T14:53:45.940Z,1.95
2023-02-18T14:56:16.283Z,1.55
2023-02-18T14:59:02.276Z,2.38
2023-02-18T15:01:32.775Z,3.38
2023-02-18T15:04:02.408Z,4.20
2023-02-18T15:06:38.328Z,3.95
2023-02-18T15:11:52.171Z,7.85
2023-02-18T15:14:27.033Z,16.00
2023-02-18T15:16:55.017Z,38.67
2023-02-18T15:19:27.059Z,15.32
2023-02-18T15:21:57.110Z,16.52
2023-02-18T15:24:26.591Z,21.13
2023-02-18T15:26:57.662Z,23.67
2023-02-18T15:29:33.292Z,17.35
2023-02-18T15:32:04.295Z,8.23
2023-02-18T15:34:39.757Z,7.18
2023-02-18T15:37:13.555Z,5.85
2023-02-18T15:39:43.240Z,3.40
2023-02-18T15:42:41.582Z,4.18
2023-02-18T15:45:23.372Z,4.47
2023-02-18T15:47:55.103Z,8.85
2023-02-18T15:50:49.719Z,13.50
2023-02-18T15:53:21.203Z,6.90
2023-02-18T15:55:54.008Z,6.78
2023-02-18T15:58:29.580Z,6.10
2023-02-18T16:01:08.119Z,7.15
2023-02-18T16:03:46.551Z,6.65
2023-02-18T16:06:24.932Z,6.45
2023-02-18T16:09:19.076Z,3.10
2023-02-18T16:11:51.068Z,4.13
2023-02-18T16:14:32.702Z,6.15
2023-02-18T16:17:13.263Z,5.22
2023-02-18T16:20:04.495Z,5.38
2023-02-18T16:22:36.464Z,5.25
2023-02-18T16:25:13.185Z,7.78
2023-02-18T16:28:03.565Z,5.20
2023-02-18T16:30:33.297Z,6.20
2023-02-18T16:33:03.752Z,6.43
2023-02-18T16:35:43.981Z,5.32
2023-02-18T16:38:24.836Z,6.70
2023-02-18T16:43:24.337Z,8.77
2023-02-18T16:45:55.478Z,7.38
2023-02-18T16:48:36.988Z,13.90
2023-02-18T16:51:31.657Z,5.57
2023-02-18T16:54:00.206Z,7.43
2023-02-18T16:56:32.410Z,8.98
2023-02-18T16:59:00.553Z,7.88
2023-02-18T17:01:34.858Z,5.25
2023-02-18T17:04:03.358Z,5.75
2023-02-18T17:06:31.627Z,8.25
2023-02-18T17:08:59.711Z,5.72
2023-02-18T17:11:34.096Z,6.45
2023-02-18T17:14:05.264Z,6.10
2023-02-18T17:16:33.324Z,9.13
2023-02-18T17:19:00.931Z,7.15
2023-02-18T17:21:28.642Z,6.97
2023-02-18T17:23:56.308Z,7.03
2023-02-18T17:26:30.242Z,12.35
2023-02-18T17:29:00.573Z,12.30
2023-02-18T17:31:31.470Z,13.63
2023-02-18T17:34:01.956Z,12.88
2023-02-18T17:36:29.550Z,12.73
2023-02-18T17:38:57.871Z,12.23
2023-02-18T17:41:25.772Z,11.57
2023-02-18T17:43:53.485Z,8.50
2023-02-18T17:46:21.312Z,6.43
2023-02-18T17:48:49.636Z,7.25
2023-02-18T17:51:33.161Z,5.55
2023-02-18T17:54:00.893Z,6.18
2023-02-18T17:56:28.867Z,6.85
2023-02-18T17:58:56.458Z,5.88
2023-02-18T18:01:24.605Z,7.03
2023-02-18T18:03:52.369Z,4.65
2023-02-18T18:06:21.064Z,4.57
2023-02-18T18:08:50.945Z,5.20
2023-02-18T18:11:22.729Z,5.03
2023-02-18T18:13:53.060Z,4.45
2023-02-18T18:16:21.806Z,4.97
2023-02-18T18:18:49.435Z,4.75
2023-02-18T18:21:35.127Z,4.15
2023-02-18T18:24:03.559Z,4.30
2023-02-18T18:26:31.610Z,4.20
2023-02-18T18:28:59.183Z,3.50
2023-02-18T18:31:26.943Z,3.25
2023-02-18T18:33:55.251Z,3.75
2023-02-18T18:36:24.440Z,2.63
2023-02-18T18:38:55.440Z,3.25
2023-02-18T18:41:23.289Z,3.55
2023-02-18T18:43:50.944Z,3.50
2023-02-18T18:46:19.156Z,3.50
2023-02-18T18:48:46.992Z,3.17
2023-02-18T18:51:17.726Z,2.78
2023-02-18T18:53:45.410Z,3.17
2023-02-18T18:56:13.791Z,2.35
2023-02-18T18:58:41.673Z,2.65
2023-02-18T19:01:19.791Z,2.88
2023-02-18T19:03:48.528Z,2.00
2023-02-18T19:06:17.613Z,2.38
2023-02-18T19:08:49.590Z,1.63
2023-02-18T19:11:17.755Z,2.60
2023-02-18T19:13:45.916Z,2.70
2023-02-18T19:16:13.527Z,2.03
2023-02-18T19:18:41.435Z,2.00
2023-02-18T19:21:09.674Z,1.70
2023-02-18T19:23:37.577Z,1.90
2023-02-18T19:26:06.469Z,1.48
2023-02-18T19:28:34.554Z,1.83
2023-02-18T19:31:03.112Z,1.70
2023-02-18T19:33:30.837Z,2.10
2023-02-18T19:35:58.423Z,2.60
2023-02-18T19:38:26.465Z,1.80
2023-02-18T19:40:55.464Z,1.85
2023-02-18T19:43:23.119Z,1.20
2023-02-18T19:45:51.227Z,1.42
2023-02-18T19:48:20.808Z,1.52
2023-02-18T19:50:48.627Z,1.42
2023-02-18T19:53:16.365Z,1.58
2023-02-18T19:55:44.149Z,1.00
2023-02-18T19:58:11.850Z,1.65
2023-02-18T20:00:40.675Z,1.15
2023-02-18T20:03:08.281Z,1.42
2023-02-18T20:05:38.963Z,1.35
2023-02-18T20:08:06.913Z,1.27
2023-02-18T20:10:34.951Z,1.30
2023-02-18T20:13:05.311Z,1.13
2023-02-18T20:15:32.973Z,1.17
2023-02-18T20:18:00.637Z,1.20
2023-02-18T20:20:28.513Z,1.13
2023-02-18T20:22:56.187Z,1.35
2023-02-18T20:25:23.839Z,1.05
2023-02-18T20:28:00.867Z,1.30
2023-02-18T20:30:29.351Z,1.20
2023-02-18T20:32:56.976Z,1.50
2023-02-18T20:35:24.934Z,1.50
2023-02-18T20:37:52.646Z,1.70
2023-02-18T20:40:20.194Z,1.38
2023-02-18T20:42:47.832Z,1.40
2023-02-18T20:45:15.690Z,1.33
2023-02-18T20:47:43.360Z,1.63
2023-02-18T20:50:11.018Z,1.30
2023-02-18T20:52:38.693Z,1.10
2023-02-18T20:55:06.440Z,1.83
2023-02-18T20:57:34.200Z,3.97
2023-02-18T21:00:03.705Z,3.35
2023-02-18T21:02:40.600Z,2.33
2023-02-18T21:05:28.250Z,1.73
2023-02-18T21:08:20.501Z,1.45
2023-02-18T21:11:04.116Z,1.35
2023-02-18T21:14:00.964Z,1.83
2023-02-18T21:17:08.501Z,1.20
2023-02-18T21:20:36.096Z,1.50
2023-02-18T21:23:08.295Z,1.83
2023-02-18T21:25:37.758Z,1.45
2023-02-18T21:28:07.424Z,1.30
2023-02-18T21:30:39.483Z,2.22
2023-02-18T21:33:07.436Z,1.50
2023-02-18T21:35:36.361Z,1.42
2023-02-18T21:38:04.892Z,1.73
2023-02-18T21:40:32.933Z,1.02
2023-02-18T21:43:00.945Z,1.02
2023-02-18T21:45:31.440Z,1.63
2023-02-18T21:48:18.997Z,1.88
2023-02-18T21:50:46.758Z,1.35
2023-02-18T21:53:14.513Z,1.45
2023-02-18T21:55:44.566Z,1.70
2023-02-18T21:58:15.419Z,1.38
2023-02-18T22:00:43.155Z,1.40
2023-02-18T22:03:10.823Z,1.75
2023-02-18T22:05:43.227Z,1.58
2023-02-18T22:08:10.946Z,1.27
2023-02-18T22:10:39.355Z,1.25
2023-02-18T22:13:06.912Z,1.45
2023-02-18T22:15:34.704Z,1.98
2023-02-18T22:18:02.915Z,1.20
2023-02-18T22:20:30.573Z,1.50
2023-02-18T22:22:58.273Z,1.25
2023-02-18T22:25:25.915Z,1.40
2023-02-18T22:27:53.508Z,1.15
2023-02-18T22:30:21.229Z,1.20
2023-02-18T22:32:48.921Z,0.88
2023-02-18T22:35:17.032Z,1.23
2023-02-18T22:37:44.776Z,1.38
2023-02-18T22:40:12.456Z,1.15
2023-02-18T22:42:40.162Z,1.23
2023-02-18T22:45:08.099Z,1.27
2023-02-18T22:47:35.735Z,1.13
2023-02-18T22:50:04.127Z,1.10
2023-02-18T22:52:31.864Z,0.73
2023-02-18T22:54:59.471Z,0.90
2023-02-18T22:57:27.278Z,0.82
2023-02-18T22:59:54.950Z,0.95
2023-02-18T23:02:22.654Z,1.27
2023-02-18T23:04:50.195Z,1.10
2023-02-18T23:07:18.548Z,1.45
2023-02-18T23:09:46.263Z,1.35
2023-02-18T23:12:13.838Z,1.20
2023-02-18T23:14:41.547Z,0.85
2023-02-18T23:17:15.289Z,1.00
2023-02-18T23:19:54.050Z,1.30
2023-02-18T23:22:33.313Z,0.95
2023-02-18T23:25:05.948Z,1.17
2023-02-18T23:27:34.758Z,0.98
2023-02-18T23:30:03.149Z,1.35
2023-02-18T23:32:32.032Z,1.08
2023-02-18T23:34:59.587Z,1.00
2023-02-18T23:37:48.360Z,0.90
2023-02-18T23:40:16.786Z,0.93
2023-02-18T23:42:44.379Z,0.70
2023-02-18T23:45:12.092Z,0.68
2023-02-18T23:47:39.654Z,1.08
2023-02-18T23:50:07.522Z,0.90
2023-02-18T23:52:35.175Z,1.08
2023-02-18T23:55:02.921Z,1.15
2023-02-18T23:57:32.038Z,1.15
2023-02-18T23:59:59.658Z,0.80
